sensor_id;sensor_type;location;lat;lon;timestamp;P1;P2;P0
56069;PMS5003;41944;52.078;-0.058;2024-03-25T00:00:37;29;23;
56069;PMS5003;41944;52.078;-0.058;2024-03-25T00:03:05;21;18;
56069;PMS5003;41944;52.078;-0.058;2024-03-25T00:05:32;23;18;
56069;PMS5003;41944;52.078;-0.058;2024-03-25T00:07:59;18;14;
56069;PMS5003;41944;52.078;-0.058;2024-03-25T00:10:26;17;16;
56069;PMS5003;41944;52.078;-0.058;2024-03-25T00:12:54;18;17;
56069;PMS5003;41944;52.078;-0.058;2024-03-25T00:15:21;26;18;
56069;PMS5003;41944;52.078;-0.058;2024-03-25T00:17:48;16;15;
56069;PMS5003;41944;52.078;-0.058;2024-03-25T00:20:16;16;16;
56069;PMS5003;41944;52.078;-0.058;2024-03-25T00:22:44;22;18;
56069;PMS5003;41944;52.078;-0.058;2024-03-25T00:25:11;19;17;
56069;PMS5003;41944;52.078;-0.058;2024-03-25T00:27:38;17;15;
56069;PMS5003;41944;52.078;-0.058;2024-03-25T00:30:05;15;15;
56069;PMS5003;41944;52.078;-0.058;2024-03-25T00:32:34;12;12;
56069;PMS5003;41944;52.078;-0.058;2024-03-25T00:35:01;19;17;
56069;PMS5003;41944;52.078;-0.058;2024-03-25T00:37:28;13;13;
56069;PMS5003;41944;52.078;-0.058;2024-03-25T00:39:56;22;17;
56069;PMS5003;41944;52.078;-0.058;2024-03-25T00:42:23;17;16;
56069;PMS5003;41944;52.078;-0.058;2024-03-25T00:44:50;15;15;
56069;PMS5003;41944;52.078;-0.058;2024-03-25T00:47:17;16;14;
56069;PMS5003;41944;52.078;-0.058;2024-03-25T00:49:44;16;13;
56069;PMS5003;41944;52.078;-0.058;2024-03-25T00:52:11;14;13;
56069;PMS5003;41944;52.078;-0.058;2024-03-25T00:54:39;18;15;
56069;PMS5003;41944;52.078;-0.058;2024-03-25T00:57:06;16;14;
56069;PMS5003;41944;52.078;-0.058;2024-03-25T00:59:33;14;14;
56069;PMS5003;41944;52.078;-0.058;2024-03-25T01:02:00;20;20;
56069;PMS5003;41944;52.078;-0.058;2024-03-25T01:04:28;20;17;
56069;PMS5003;41944;52.078;-0.058;2024-03-25T01:06:55;18;15;
56069;PMS5003;41944;52.078;-0.058;2024-03-25T01:09:23;20;20;
56069;PMS5003;41944;52.078;-0.058;2024-03-25T01:11:50;20;20;
56069;PMS5003;41944;52.078;-0.058;2024-03-25T01:14:17;23;22;
56069;PMS5003;41944;52.078;-0.058;2024-03-25T01:16:44;24;21;
56069;PMS5003;41944;52.078;-0.058;2024-03-25T01:19:11;23;20;
56069;PMS5003;41944;52.078;-0.058;2024-03-25T01:21:38;18;17;
56069;PMS5003;41944;52.078;-0.058;2024-03-25T01:24:05;19;17;
56069;PMS5003;41944;52.078;-0.058;2024-03-25T01:26:32;22;20;
56069;PMS5003;41944;52.078;-0.058;2024-03-25T01:29:00;19;17;
56069;PMS5003;41944;52.078;-0.058;2024-03-25T01:31:27;23;21;
56069;PMS5003;41944;52.078;-0.058;2024-03-25T01:33:54;22;19;
56069;PMS5003;41944;52.078;-0.058;2024-03-25T01:36:22;20;18;
56069;PMS5003;41944;52.078;-0.058;2024-03-25T01:38:49;23;18;
56069;PMS5003;41944;52.078;-0.058;2024-03-25T01:41:19;22;20;
56069;PMS5003;41944;52.078;-0.058;2024-03-25T01:43:48;20;17;
56069;PMS5003;41944;52.078;-0.058;2024-03-25T01:46:15;17;16;
56069;PMS5003;41944;52.078;-0.058;2024-03-25T01:48:43;21;19;
56069;PMS5003;41944;52.078;-0.058;2024-03-25T01:51:11;17;14;
56069;PMS5003;41944;52.078;-0.058;2024-03-25T01:53:41;22;20;
56069;PMS5003;41944;52.078;-0.058;2024-03-25T01:56:09;19;18;
56069;PMS5003;41944;52.078;-0.058;2024-03-25T01:58:38;19;15;
56069;PMS5003;41944;52.078;-0.058;2024-03-25T02:01:06;16;15;
56069;PMS5003;41944;52.078;-0.058;2024-03-25T02:03:34;17;17;
56069;PMS5003;41944;52.078;-0.058;2024-03-25T02:06:02;21;20;
56069;PMS5003;41944;52.078;-0.058;2024-03-25T02:08:32;19;18;
56069;PMS5003;41944;52.078;-0.058;2024-03-25T02:11:00;19;17;
56069;PMS5003;41944;52.078;-0.058;2024-03-25T02:13:28;18;18;
56069;PMS5003;41944;52.078;-0.058;2024-03-25T02:15:56;19;17;
56069;PMS5003;41944;52.078;-0.058;2024-03-25T02:18:24;19;17;
56069;PMS5003;41944;52.078;-0.058;2024-03-25T02:20:51;20;17;
56069;PMS5003;41944;52.078;-0.058;2024-03-25T02:23:18;17;15;
56069;PMS5003;41944;52.078;-0.058;2024-03-25T02:25:48;21;20;
56069;PMS5003;41944;52.078;-0.058;2024-03-25T02:28:16;23;19;
56069;PMS5003;41944;52.078;-0.058;2024-03-25T02:30:43;17;16;
56069;PMS5003;41944;52.078;-0.058;2024-03-25T02:33:10;23;20;
56069;PMS5003;41944;52.078;-0.058;2024-03-25T02:35:38;23;21;
56069;PMS5003;41944;52.078;-0.058;2024-03-25T02:38:07;22;22;
56069;PMS5003;41944;52.078;-0.058;2024-03-25T02:40:35;21;20;
56069;PMS5003;41944;52.078;-0.058;2024-03-25T02:43:03;24;21;
56069;PMS5003;41944;52.078;-0.058;2024-03-25T02:45:30;21;19;
56069;PMS5003;41944;52.078;-0.058;2024-03-25T02:47:57;20;17;
56069;PMS5003;41944;52.078;-0.058;2024-03-25T02:50:24;21;20;
56069;PMS5003;41944;52.078;-0.058;2024-03-25T02:52:52;19;18;
56069;PMS5003;41944;52.078;-0.058;2024-03-25T02:55:19;17;14;
56069;PMS5003;41944;52.078;-0.058;2024-03-25T02:57:46;22;21;
56069;PMS5003;41944;52.078;-0.058;2024-03-25T03:00:13;21;18;
56069;PMS5003;41944;52.078;-0.058;2024-03-25T03:02:40;21;17;
56069;PMS5003;41944;52.078;-0.058;2024-03-25T03:05:07;16;16;
56069;PMS5003;41944;52.078;-0.058;2024-03-25T03:07:34;20;16;
56069;PMS5003;41944;52.078;-0.058;2024-03-25T03:10:01;20;17;
56069;PMS5003;41944;52.078;-0.058;2024-03-25T03:12:28;15;15;
56069;PMS5003;41944;52.078;-0.058;2024-03-25T03:14:55;20;17;
56069;PMS5003;41944;52.078;-0.058;2024-03-25T03:17:22;19;16;
56069;PMS5003;41944;52.078;-0.058;2024-03-25T03:19:49;16;15;
56069;PMS5003;41944;52.078;-0.058;2024-03-25T03:22:16;20;15;
56069;PMS5003;41944;52.078;-0.058;2024-03-25T03:24:43;20;15;
56069;PMS5003;41944;52.078;-0.058;2024-03-25T03:27:10;20;19;
56069;PMS5003;41944;52.078;-0.058;2024-03-25T03:29:37;15;13;
56069;PMS5003;41944;52.078;-0.058;2024-03-25T03:32:04;20;19;
56069;PMS5003;41944;52.078;-0.058;2024-03-25T03:34:32;17;17;
56069;PMS5003;41944;52.078;-0.058;2024-03-25T03:36:59;14;14;
56069;PMS5003;41944;52.078;-0.058;2024-03-25T03:39:26;22;16;
56069;PMS5003;41944;52.078;-0.058;2024-03-25T03:41:54;18;17;
56069;PMS5003;41944;52.078;-0.058;2024-03-25T03:44:21;15;15;
56069;PMS5003;41944;52.078;-0.058;2024-03-25T03:46:48;16;14;
56069;PMS5003;41944;52.078;-0.058;2024-03-25T03:49:15;21;20;
56069;PMS5003;41944;52.078;-0.058;2024-03-25T03:51:42;18;15;
56069;PMS5003;41944;52.078;-0.058;2024-03-25T03:54:09;14;14;
56069;PMS5003;41944;52.078;-0.058;2024-03-25T03:56:36;16;14;
56069;PMS5003;41944;52.078;-0.058;2024-03-25T03:59:03;23;21;
56069;PMS5003;41944;52.078;-0.058;2024-03-25T04:01:30;19;17;
56069;PMS5003;41944;52.078;-0.058;2024-03-25T04:03:58;16;15;
56069;PMS5003;41944;52.078;-0.058;2024-03-25T04:06:25;18;16;
56069;PMS5003;41944;52.078;-0.058;2024-03-25T04:08:52;21;20;
56069;PMS5003;41944;52.078;-0.058;2024-03-25T04:11:19;21;20;
56069;PMS5003;41944;52.078;-0.058;2024-03-25T04:13:46;23;19;
56069;PMS5003;41944;52.078;-0.058;2024-03-25T04:16:13;21;18;
56069;PMS5003;41944;52.078;-0.058;2024-03-25T04:18:40;22;19;
56069;PMS5003;41944;52.078;-0.058;2024-03-25T04:21:11;18;17;
56069;PMS5003;41944;52.078;-0.058;2024-03-25T04:23:38;26;21;
56069;PMS5003;41944;52.078;-0.058;2024-03-25T04:26:05;24;20;
56069;PMS5003;41944;52.078;-0.058;2024-03-25T04:28:33;25;23;
56069;PMS5003;41944;52.078;-0.058;2024-03-25T04:31:00;25;21;
56069;PMS5003;41944;52.078;-0.058;2024-03-25T04:33:27;27;25;
56069;PMS5003;41944;52.078;-0.058;2024-03-25T04:35:54;21;18;
56069;PMS5003;41944;52.078;-0.058;2024-03-25T04:38:20;30;22;
56069;PMS5003;41944;52.078;-0.058;2024-03-25T04:40:48;24;19;
56069;PMS5003;41944;52.078;-0.058;2024-03-25T04:43:14;18;18;
56069;PMS5003;41944;52.078;-0.058;2024-03-25T04:45:41;22;19;
56069;PMS5003;41944;52.078;-0.058;2024-03-25T04:48:09;24;20;
56069;PMS5003;41944;52.078;-0.058;2024-03-25T04:50:35;28;24;
56069;PMS5003;41944;52.078;-0.058;2024-03-25T04:53:02;20;18;
56069;PMS5003;41944;52.078;-0.058;2024-03-25T04:55:30;19;17;
56069;PMS5003;41944;52.078;-0.058;2024-03-25T04:57:57;19;18;
56069;PMS5003;41944;52.078;-0.058;2024-03-25T05:00:24;24;23;
56069;PMS5003;41944;52.078;-0.058;2024-03-25T05:02:51;23;20;
56069;PMS5003;41944;52.078;-0.058;2024-03-25T05:05:19;17;16;
56069;PMS5003;41944;52.078;-0.058;2024-03-25T05:07:46;24;18;
56069;PMS5003;41944;52.078;-0.058;2024-03-25T05:10:12;19;18;
56069;PMS5003;41944;52.078;-0.058;2024-03-25T05:12:39;22;20;
56069;PMS5003;41944;52.078;-0.058;2024-03-25T05:15:07;19;16;
56069;PMS5003;41944;52.078;-0.058;2024-03-25T05:17:34;21;16;
56069;PMS5003;41944;52.078;-0.058;2024-03-25T05:20:01;17;14;
56069;PMS5003;41944;52.078;-0.058;2024-03-25T05:22:28;20;17;
56069;PMS5003;41944;52.078;-0.058;2024-03-25T05:24:55;16;16;
56069;PMS5003;41944;52.078;-0.058;2024-03-25T05:27:22;21;19;
56069;PMS5003;41944;52.078;-0.058;2024-03-25T05:29:50;19;18;
56069;PMS5003;41944;52.078;-0.058;2024-03-25T05:32:17;17;15;
56069;PMS5003;41944;52.078;-0.058;2024-03-25T05:34:44;17;17;
56069;PMS5003;41944;52.078;-0.058;2024-03-25T05:37:12;13;13;
56069;PMS5003;41944;52.078;-0.058;2024-03-25T05:39:38;21;17;
56069;PMS5003;41944;52.078;-0.058;2024-03-25T05:42:06;22;20;
56069;PMS5003;41944;52.078;-0.058;2024-03-25T05:44:33;22;22;
56069;PMS5003;41944;52.078;-0.058;2024-03-25T05:47:00;19;16;
56069;PMS5003;41944;52.078;-0.058;2024-03-25T05:49:28;19;15;
56069;PMS5003;41944;52.078;-0.058;2024-03-25T05:51:55;18;18;
56069;PMS5003;41944;52.078;-0.058;2024-03-25T05:54:22;18;15;
56069;PMS5003;41944;52.078;-0.058;2024-03-25T05:56:49;15;13;
56069;PMS5003;41944;52.078;-0.058;2024-03-25T05:59:16;18;17;
56069;PMS5003;41944;52.078;-0.058;2024-03-25T06:01:43;31;28;
56069;PMS5003;41944;52.078;-0.058;2024-03-25T06:04:10;24;17;
56069;PMS5003;41944;52.078;-0.058;2024-03-25T06:06:37;20;15;
56069;PMS5003;41944;52.078;-0.058;2024-03-25T06:09:04;15;12;
56069;PMS5003;41944;52.078;-0.058;2024-03-25T06:11:31;16;15;
56069;PMS5003;41944;52.078;-0.058;2024-03-25T06:13:59;13;13;
56069;PMS5003;41944;52.078;-0.058;2024-03-25T06:16:26;19;16;
56069;PMS5003;41944;52.078;-0.058;2024-03-25T06:18:54;21;18;
56069;PMS5003;41944;52.078;-0.058;2024-03-25T06:21:21;17;14;
56069;PMS5003;41944;52.078;-0.058;2024-03-25T06:23:49;13;11;
56069;PMS5003;41944;52.078;-0.058;2024-03-25T06:26:16;19;14;
56069;PMS5003;41944;52.078;-0.058;2024-03-25T06:28:44;16;13;
56069;PMS5003;41944;52.078;-0.058;2024-03-25T06:31:11;13;13;
56069;PMS5003;41944;52.078;-0.058;2024-03-25T06:33:38;13;12;
56069;PMS5003;41944;52.078;-0.058;2024-03-25T06:36:05;20;15;
56069;PMS5003;41944;52.078;-0.058;2024-03-25T06:38:32;14;12;
56069;PMS5003;41944;52.078;-0.058;2024-03-25T06:41:00;19;15;
56069;PMS5003;41944;52.078;-0.058;2024-03-25T06:43:27;15;13;
56069;PMS5003;41944;52.078;-0.058;2024-03-25T06:45:54;17;13;
56069;PMS5003;41944;52.078;-0.058;2024-03-25T06:48:22;14;12;
56069;PMS5003;41944;52.078;-0.058;2024-03-25T06:50:52;13;13;
56069;PMS5003;41944;52.078;-0.058;2024-03-25T06:53:20;16;13;
56069;PMS5003;41944;52.078;-0.058;2024-03-25T06:55:56;17;15;
56069;PMS5003;41944;52.078;-0.058;2024-03-25T06:58:24;17;12;
56069;PMS5003;41944;52.078;-0.058;2024-03-25T07:00:53;15;12;
56069;PMS5003;41944;52.078;-0.058;2024-03-25T07:03:22;14;13;
56069;PMS5003;41944;52.078;-0.058;2024-03-25T07:05:51;11;11;
56069;PMS5003;41944;52.078;-0.058;2024-03-25T07:08:18;14;12;
56069;PMS5003;41944;52.078;-0.058;2024-03-25T07:10:46;14;10;
56069;PMS5003;41944;52.078;-0.058;2024-03-25T07:13:13;18;13;
56069;PMS5003;41944;52.078;-0.058;2024-03-25T07:15:40;14;13;
56069;PMS5003;41944;52.078;-0.058;2024-03-25T07:18:09;15;12;
56069;PMS5003;41944;52.078;-0.058;2024-03-25T07:20:36;13;10;
56069;PMS5003;41944;52.078;-0.058;2024-03-25T07:23:03;15;12;
56069;PMS5003;41944;52.078;-0.058;2024-03-25T07:25:30;13;11;
56069;PMS5003;41944;52.078;-0.058;2024-03-25T07:27:58;23;15;
56069;PMS5003;41944;52.078;-0.058;2024-03-25T07:30:26;17;13;
56069;PMS5003;41944;52.078;-0.058;2024-03-25T07:32:53;10;10;
56069;PMS5003;41944;52.078;-0.058;2024-03-25T07:35:20;25;24;
56069;PMS5003;41944;52.078;-0.058;2024-03-25T07:37:48;14;13;
56069;PMS5003;41944;52.078;-0.058;2024-03-25T07:40:15;11;10;
56069;PMS5003;41944;52.078;-0.058;2024-03-25T07:42:42;10;9;
56069;PMS5003;41944;52.078;-0.058;2024-03-25T07:45:09;15;12;
56069;PMS5003;41944;52.078;-0.058;2024-03-25T07:47:36;12;10;
56069;PMS5003;41944;52.078;-0.058;2024-03-25T07:50:03;12;11;
56069;PMS5003;41944;52.078;-0.058;2024-03-25T07:52:31;14;11;
56069;PMS5003;41944;52.078;-0.058;2024-03-25T07:54:58;17;13;
56069;PMS5003;41944;52.078;-0.058;2024-03-25T07:57:26;11;10;
56069;PMS5003;41944;52.078;-0.058;2024-03-25T07:59:53;18;12;
56069;PMS5003;41944;52.078;-0.058;2024-03-25T08:02:20;15;13;
56069;PMS5003;41944;52.078;-0.058;2024-03-25T08:04:47;12;12;
56069;PMS5003;41944;52.078;-0.058;2024-03-25T08:07:14;16;15;
56069;PMS5003;41944;52.078;-0.058;2024-03-25T08:09:41;13;10;
56069;PMS5003;41944;52.078;-0.058;2024-03-25T08:12:09;10;10;
56069;PMS5003;41944;52.078;-0.058;2024-03-25T08:14:36;14;11;
56069;PMS5003;41944;52.078;-0.058;2024-03-25T08:17:03;14;10;
56069;PMS5003;41944;52.078;-0.058;2024-03-25T08:19:31;17;16;
56069;PMS5003;41944;52.078;-0.058;2024-03-25T08:21:58;13;12;
56069;PMS5003;41944;52.078;-0.058;2024-03-25T08:24:25;12;10;
56069;PMS5003;41944;52.078;-0.058;2024-03-25T08:26:52;12;11;
56069;PMS5003;41944;52.078;-0.058;2024-03-25T08:29:19;15;14;
56069;PMS5003;41944;52.078;-0.058;2024-03-25T08:31:46;18;14;
56069;PMS5003;41944;52.078;-0.058;2024-03-25T08:34:13;21;21;
56069;PMS5003;41944;52.078;-0.058;2024-03-25T08:36:40;11;9;
56069;PMS5003;41944;52.078;-0.058;2024-03-25T08:39:07;16;12;
56069;PMS5003;41944;52.078;-0.058;2024-03-25T08:41:34;15;11;
56069;PMS5003;41944;52.078;-0.058;2024-03-25T08:44:02;14;11;
56069;PMS5003;41944;52.078;-0.058;2024-03-25T08:46:29;11;8;
56069;PMS5003;41944;52.078;-0.058;2024-03-25T08:48:56;15;12;
56069;PMS5003;41944;52.078;-0.058;2024-03-25T08:51:23;14;8;
56069;PMS5003;41944;52.078;-0.058;2024-03-25T08:53:50;13;9;
56069;PMS5003;41944;52.078;-0.058;2024-03-25T08:56:17;20;15;
56069;PMS5003;41944;52.078;-0.058;2024-03-25T08:58:44;14;12;
56069;PMS5003;41944;52.078;-0.058;2024-03-25T09:01:11;14;13;
56069;PMS5003;41944;52.078;-0.058;2024-03-25T09:03:38;16;13;
56069;PMS5003;41944;52.078;-0.058;2024-03-25T09:06:06;14;11;
56069;PMS5003;41944;52.078;-0.058;2024-03-25T09:08:33;16;13;
56069;PMS5003;41944;52.078;-0.058;2024-03-25T09:11:00;13;11;
56069;PMS5003;41944;52.078;-0.058;2024-03-25T09:13:27;10;10;
56069;PMS5003;41944;52.078;-0.058;2024-03-25T09:15:55;17;11;
56069;PMS5003;41944;52.078;-0.058;2024-03-25T09:18:22;23;19;
56069;PMS5003;41944;52.078;-0.058;2024-03-25T09:20:49;16;14;
56069;PMS5003;41944;52.078;-0.058;2024-03-25T09:23:16;32;25;
56069;PMS5003;41944;52.078;-0.058;2024-03-25T09:25:51;12;11;
56069;PMS5003;41944;52.078;-0.058;2024-03-25T09:28:18;19;15;
56069;PMS5003;41944;52.078;-0.058;2024-03-25T09:30:47;12;10;
56069;PMS5003;41944;52.078;-0.058;2024-03-25T09:33:14;50;36;
56069;PMS5003;41944;52.078;-0.058;2024-03-25T09:35:41;14;12;
56069;PMS5003;41944;52.078;-0.058;2024-03-25T09:38:09;19;12;
56069;PMS5003;41944;52.078;-0.058;2024-03-25T09:40:36;19;12;
56069;PMS5003;41944;52.078;-0.058;2024-03-25T09:43:09;28;19;
56069;PMS5003;41944;52.078;-0.058;2024-03-25T09:45:39;17;14;
56069;PMS5003;41944;52.078;-0.058;2024-03-25T09:48:06;14;11;
56069;PMS5003;41944;52.078;-0.058;2024-03-25T09:50:34;17;15;
56069;PMS5003;41944;52.078;-0.058;2024-03-25T09:53:03;36;24;
56069;PMS5003;41944;52.078;-0.058;2024-03-25T09:55:30;65;45;
56069;PMS5003;41944;52.078;-0.058;2024-03-25T09:57:58;12;10;
56069;PMS5003;41944;52.078;-0.058;2024-03-25T10:00:25;25;20;
56069;PMS5003;41944;52.078;-0.058;2024-03-25T10:02:53;18;11;
56069;PMS5003;41944;52.078;-0.058;2024-03-25T10:05:20;18;13;
56069;PMS5003;41944;52.078;-0.058;2024-03-25T10:07:47;17;16;
56069;PMS5003;41944;52.078;-0.058;2024-03-25T10:10:19;23;19;
56069;PMS5003;41944;52.078;-0.058;2024-03-25T10:12:46;15;11;
56069;PMS5003;41944;52.078;-0.058;2024-03-25T10:15:15;18;15;
56069;PMS5003;41944;52.078;-0.058;2024-03-25T10:17:42;19;13;
56069;PMS5003;41944;52.078;-0.058;2024-03-25T10:20:13;21;14;
56069;PMS5003;41944;52.078;-0.058;2024-03-25T10:22:41;12;10;
56069;PMS5003;41944;52.078;-0.058;2024-03-25T10:25:19;12;9;
56069;PMS5003;41944;52.078;-0.058;2024-03-25T10:27:55;37;27;
56069;PMS5003;41944;52.078;-0.058;2024-03-25T10:30:23;18;15;
56069;PMS5003;41944;52.078;-0.058;2024-03-25T10:32:59;9;8;
56069;PMS5003;41944;52.078;-0.058;2024-03-25T10:35:27;15;11;
56069;PMS5003;41944;52.078;-0.058;2024-03-25T10:37:57;10;10;
56069;PMS5003;41944;52.078;-0.058;2024-03-25T10:40:26;9;7;
56069;PMS5003;41944;52.078;-0.058;2024-03-25T10:43:02;9;7;
56069;PMS5003;41944;52.078;-0.058;2024-03-25T10:45:30;9;7;
56069;PMS5003;41944;52.078;-0.058;2024-03-25T10:47:57;10;9;
56069;PMS5003;41944;52.078;-0.058;2024-03-25T10:50:29;7;5;
56069;PMS5003;41944;52.078;-0.058;2024-03-25T10:52:57;8;7;
56069;PMS5003;41944;52.078;-0.058;2024-03-25T10:55:25;8;7;
56069;PMS5003;41944;52.078;-0.058;2024-03-25T10:57:53;11;8;
56069;PMS5003;41944;52.078;-0.058;2024-03-25T11:00:22;8;6;
56069;PMS5003;41944;52.078;-0.058;2024-03-25T11:02:49;9;6;
56069;PMS5003;41944;52.078;-0.058;2024-03-25T11:05:19;7;6;
56069;PMS5003;41944;52.078;-0.058;2024-03-25T11:07:46;8;8;
56069;PMS5003;41944;52.078;-0.058;2024-03-25T11:10:13;9;7;
56069;PMS5003;41944;52.078;-0.058;2024-03-25T11:12:42;6;6;
56069;PMS5003;41944;52.078;-0.058;2024-03-25T11:15:09;9;6;
56069;PMS5003;41944;52.078;-0.058;2024-03-25T11:17:36;12;9;
56069;PMS5003;41944;52.078;-0.058;2024-03-25T11:20:15;10;6;
56069;PMS5003;41944;52.078;-0.058;2024-03-25T11:22:49;8;6;
56069;PMS5003;41944;52.078;-0.058;2024-03-25T11:25:17;6;6;
56069;PMS5003;41944;52.078;-0.058;2024-03-25T11:27:47;11;8;
56069;PMS5003;41944;52.078;-0.058;2024-03-25T11:30:19;9;5;
56069;PMS5003;41944;52.078;-0.058;2024-03-25T11:32:49;10;6;
56069;PMS5003;41944;52.078;-0.058;2024-03-25T11:35:18;7;7;
56069;PMS5003;41944;52.078;-0.058;2024-03-25T11:37:46;9;8;
56069;PMS5003;41944;52.078;-0.058;2024-03-25T11:40:14;15;8;
56069;PMS5003;41944;52.078;-0.058;2024-03-25T11:42:41;10;6;
56069;PMS5003;41944;52.078;-0.058;2024-03-25T11:45:13;7;5;
56069;PMS5003;41944;52.078;-0.058;2024-03-25T11:47:41;6;5;
56069;PMS5003;41944;52.078;-0.058;2024-03-25T11:50:11;9;6;
56069;PMS5003;41944;52.078;-0.058;2024-03-25T11:52:40;5;5;
56069;PMS5003;41944;52.078;-0.058;2024-03-25T11:55:07;6;6;
56069;PMS5003;41944;52.078;-0.058;2024-03-25T11:57:34;8;7;
56069;PMS5003;41944;52.078;-0.058;2024-03-25T12:00:02;8;6;
56069;PMS5003;41944;52.078;-0.058;2024-03-25T12:02:30;9;6;
56069;PMS5003;41944;52.078;-0.058;2024-03-25T12:04:56;9;7;
56069;PMS5003;41944;52.078;-0.058;2024-03-25T12:07:24;6;5;
56069;PMS5003;41944;52.078;-0.058;2024-03-25T12:09:51;9;5;
56069;PMS5003;41944;52.078;-0.058;2024-03-25T12:12:18;3;3;
56069;PMS5003;41944;52.078;-0.058;2024-03-25T12:14:45;9;6;
56069;PMS5003;41944;52.078;-0.058;2024-03-25T12:17:12;6;6;
56069;PMS5003;41944;52.078;-0.058;2024-03-25T12:19:39;6;5;
56069;PMS5003;41944;52.078;-0.058;2024-03-25T12:22:07;9;5;
56069;PMS5003;41944;52.078;-0.058;2024-03-25T12:24:35;5;5;
56069;PMS5003;41944;52.078;-0.058;2024-03-25T12:27:04;5;5;
56069;PMS5003;41944;52.078;-0.058;2024-03-25T12:29:31;7;5;
56069;PMS5003;41944;52.078;-0.058;2024-03-25T12:31:59;6;6;
56069;PMS5003;41944;52.078;-0.058;2024-03-25T12:34:27;5;5;
56069;PMS5003;41944;52.078;-0.058;2024-03-25T12:37:00;8;6;
56069;PMS5003;41944;52.078;-0.058;2024-03-25T12:39:28;9;5;
56069;PMS5003;41944;52.078;-0.058;2024-03-25T12:41:55;9;6;
56069;PMS5003;41944;52.078;-0.058;2024-03-25T12:44:21;7;6;
56069;PMS5003;41944;52.078;-0.058;2024-03-25T12:46:48;7;4;
56069;PMS5003;41944;52.078;-0.058;2024-03-25T12:49:16;6;6;
56069;PMS5003;41944;52.078;-0.058;2024-03-25T12:51:43;8;6;
56069;PMS5003;41944;52.078;-0.058;2024-03-25T12:54:10;8;5;
56069;PMS5003;41944;52.078;-0.058;2024-03-25T12:56:37;4;4;
56069;PMS5003;41944;52.078;-0.058;2024-03-25T12:59:04;5;5;
56069;PMS5003;41944;52.078;-0.058;2024-03-25T13:01:31;3;3;
56069;PMS5003;41944;52.078;-0.058;2024-03-25T13:03:58;7;5;
56069;PMS5003;41944;52.078;-0.058;2024-03-25T13:06:25;10;6;
56069;PMS5003;41944;52.078;-0.058;2024-03-25T13:08:52;9;7;
56069;PMS5003;41944;52.078;-0.058;2024-03-25T13:11:19;8;5;
56069;PMS5003;41944;52.078;-0.058;2024-03-25T13:13:46;7;7;
56069;PMS5003;41944;52.078;-0.058;2024-03-25T13:16:13;6;6;
56069;PMS5003;41944;52.078;-0.058;2024-03-25T13:18:40;9;7;
56069;PMS5003;41944;52.078;-0.058;2024-03-25T13:21:07;11;8;
56069;PMS5003;41944;52.078;-0.058;2024-03-25T13:23:34;7;7;
56069;PMS5003;41944;52.078;-0.058;2024-03-25T13:26:02;9;7;
56069;PMS5003;41944;52.078;-0.058;2024-03-25T13:28:29;11;9;
56069;PMS5003;41944;52.078;-0.058;2024-03-25T13:30:56;12;9;
56069;PMS5003;41944;52.078;-0.058;2024-03-25T13:33:23;8;8;
56069;PMS5003;41944;52.078;-0.058;2024-03-25T13:35:50;13;7;
56069;PMS5003;41944;52.078;-0.058;2024-03-25T13:38:17;10;7;
56069;PMS5003;41944;52.078;-0.058;2024-03-25T13:40:44;10;8;
56069;PMS5003;41944;52.078;-0.058;2024-03-25T13:43:11;10;7;
56069;PMS5003;41944;52.078;-0.058;2024-03-25T13:45:40;11;9;
56069;PMS5003;41944;52.078;-0.058;2024-03-25T13:48:13;8;7;
56069;PMS5003;41944;52.078;-0.058;2024-03-25T13:50:41;10;8;
56069;PMS5003;41944;52.078;-0.058;2024-03-25T13:53:09;9;7;
56069;PMS5003;41944;52.078;-0.058;2024-03-25T13:55:36;10;10;
56069;PMS5003;41944;52.078;-0.058;2024-03-25T13:58:03;8;8;
56069;PMS5003;41944;52.078;-0.058;2024-03-25T14:00:31;11;10;
56069;PMS5003;41944;52.078;-0.058;2024-03-25T14:02:58;12;11;
56069;PMS5003;41944;52.078;-0.058;2024-03-25T14:05:26;12;9;
56069;PMS5003;41944;52.078;-0.058;2024-03-25T14:07:53;11;8;
56069;PMS5003;41944;52.078;-0.058;2024-03-25T14:10:21;17;14;
56069;PMS5003;41944;52.078;-0.058;2024-03-25T14:12:48;8;7;
56069;PMS5003;41944;52.078;-0.058;2024-03-25T14:15:15;9;7;
56069;PMS5003;41944;52.078;-0.058;2024-03-25T14:17:42;11;7;
56069;PMS5003;41944;52.078;-0.058;2024-03-25T14:20:09;9;7;
56069;PMS5003;41944;52.078;-0.058;2024-03-25T14:22:38;7;6;
56069;PMS5003;41944;52.078;-0.058;2024-03-25T14:25:05;10;7;
56069;PMS5003;41944;52.078;-0.058;2024-03-25T14:27:33;10;8;
56069;PMS5003;41944;52.078;-0.058;2024-03-25T14:30:00;11;8;
56069;PMS5003;41944;52.078;-0.058;2024-03-25T14:32:27;9;7;
56069;PMS5003;41944;52.078;-0.058;2024-03-25T14:34:54;9;6;
56069;PMS5003;41944;52.078;-0.058;2024-03-25T14:37:21;8;7;
56069;PMS5003;41944;52.078;-0.058;2024-03-25T14:39:48;20;20;
56069;PMS5003;41944;52.078;-0.058;2024-03-25T14:42:15;7;6;
56069;PMS5003;41944;52.078;-0.058;2024-03-25T14:44:42;12;8;
56069;PMS5003;41944;52.078;-0.058;2024-03-25T14:47:09;8;6;
56069;PMS5003;41944;52.078;-0.058;2024-03-25T14:49:36;7;7;
56069;PMS5003;41944;52.078;-0.058;2024-03-25T14:52:03;13;7;
56069;PMS5003;41944;52.078;-0.058;2024-03-25T14:54:34;10;9;
56069;PMS5003;41944;52.078;-0.058;2024-03-25T14:57:02;8;6;
56069;PMS5003;41944;52.078;-0.058;2024-03-25T14:59:28;11;7;
56069;PMS5003;41944;52.078;-0.058;2024-03-25T15:01:58;6;6;
56069;PMS5003;41944;52.078;-0.058;2024-03-25T15:04:26;8;7;
56069;PMS5003;41944;52.078;-0.058;2024-03-25T15:06:54;12;5;
56069;PMS5003;41944;52.078;-0.058;2024-03-25T15:09:21;9;6;
56069;PMS5003;41944;52.078;-0.058;2024-03-25T15:11:48;14;10;
56069;PMS5003;41944;52.078;-0.058;2024-03-25T15:14:14;6;6;
56069;PMS5003;41944;52.078;-0.058;2024-03-25T15:16:41;6;4;
56069;PMS5003;41944;52.078;-0.058;2024-03-25T15:19:08;7;7;
56069;PMS5003;41944;52.078;-0.058;2024-03-25T15:21:35;6;6;
56069;PMS5003;41944;52.078;-0.058;2024-03-25T15:24:03;12;11;
56069;PMS5003;41944;52.078;-0.058;2024-03-25T15:26:31;11;5;
56069;PMS5003;41944;52.078;-0.058;2024-03-25T15:28:59;10;7;
56069;PMS5003;41944;52.078;-0.058;2024-03-25T15:31:26;9;8;
56069;PMS5003;41944;52.078;-0.058;2024-03-25T15:33:53;7;5;
56069;PMS5003;41944;52.078;-0.058;2024-03-25T15:36:20;6;6;
56069;PMS5003;41944;52.078;-0.058;2024-03-25T15:38:46;9;7;
56069;PMS5003;41944;52.078;-0.058;2024-03-25T15:41:13;6;6;
56069;PMS5003;41944;52.078;-0.058;2024-03-25T15:43:40;9;8;
56069;PMS5003;41944;52.078;-0.058;2024-03-25T15:46:07;10;6;
56069;PMS5003;41944;52.078;-0.058;2024-03-25T15:48:35;10;5;
56069;PMS5003;41944;52.078;-0.058;2024-03-25T15:51:02;9;6;
56069;PMS5003;41944;52.078;-0.058;2024-03-25T15:53:30;9;7;
56069;PMS5003;41944;52.078;-0.058;2024-03-25T15:55:57;7;6;
56069;PMS5003;41944;52.078;-0.058;2024-03-25T15:58:24;10;6;
56069;PMS5003;41944;52.078;-0.058;2024-03-25T16:00:51;11;10;
56069;PMS5003;41944;52.078;-0.058;2024-03-25T16:03:18;9;8;
56069;PMS5003;41944;52.078;-0.058;2024-03-25T16:05:45;12;11;
56069;PMS5003;41944;52.078;-0.058;2024-03-25T16:08:12;8;6;
56069;PMS5003;41944;52.078;-0.058;2024-03-25T16:10:39;10;6;
56069;PMS5003;41944;52.078;-0.058;2024-03-25T16:13:06;7;5;